Time;durP1;ratioP1;P1;durP2;ratioP2;P2;SDS_P1;SDS_P2;PMS_P1;PMS_P2;Temp;Humidity;BMP_temperature;BMP_pressure;BME280_temperature;BME280_humidity;BME280_pressure;Samples;Min_cycle;Max_cycle;Signal;HPM_P1;HPM_P2
2023/06/01 00:00:09;;;;;;;5.97;3.10;;;;;;;22.51;42.42;102229.03;5009509;28;20033;-69
2023/06/01 00:02:35;;;;;;;5.32;3.00;;;;;;;22.49;42.86;102228.31;5009229;28;20278;-70
2023/06/01 00:05:00;;;;;;;6.18;2.85;;;;;;;22.48;42.90;102230.16;5012389;28;20034;-69
2023/06/01 00:07:26;;;;;;;5.63;3.17;;;;;;;22.48;42.65;102227.50;5002648;28;20212;-69
2023/06/01 00:09:51;;;;;;;5.22;3.22;;;;;;;22.45;42.78;102225.06;5012838;28;20033;-70
2023/06/01 00:12:16;;;;;;;5.82;3.20;;;;;;;22.45;42.80;102219.75;5012584;28;20034;-71
2023/06/01 00:14:42;;;;;;;4.75;3.25;;;;;;;22.46;42.83;102232.94;5013505;28;20040;-70
2023/06/01 00:17:09;;;;;;;6.18;3.00;;;;;;;22.46;42.79;102222.31;5016411;28;20046;-70
2023/06/01 00:19:34;;;;;;;6.25;3.15;;;;;;;22.46;42.66;102227.63;5016562;28;20033;-70
2023/06/01 00:22:00;;;;;;;6.38;3.38;;;;;;;22.45;42.84;102222.41;5012259;28;20488;-69
2023/06/01 00:24:25;;;;;;;5.40;3.30;;;;;;;22.45;42.69;102225.06;5005686;28;20034;-70
2023/06/01 00:26:51;;;;;;;7.30;3.17;;;;;;;22.44;42.52;102224.22;5016978;28;20458;-72
2023/06/01 00:29:16;;;;;;;6.57;3.35;;;;;;;22.42;42.54;102217.34;5002331;28;20041;-70
2023/06/01 00:31:42;;;;;;;5.72;3.00;;;;;;;22.44;42.53;102226.03;5004928;28;20092;-68
2023/06/01 00:34:07;;;;;;;7.13;3.10;;;;;;;22.43;42.39;102224.31;5023789;28;20080;-69
2023/06/01 00:36:33;;;;;;;4.30;2.90;;;;;;;22.42;42.67;102226.16;5024747;28;20055;-72
2023/06/01 00:39:02;;;;;;;5.70;3.30;;;;;;;22.34;42.37;102212.63;5025181;28;20045;-70
2023/06/01 00:41:28;;;;;;;5.65;3.33;;;;;;;22.42;42.35;102228.81;5017731;28;20025;-70
2023/06/01 00:43:54;;;;;;;5.40;3.45;;;;;;;22.42;42.77;102226.16;5017381;28;20474;-71
2023/06/01 00:46:19;;;;;;;5.85;2.90;;;;;;;22.41;42.66;102219.16;5010603;28;20030;-70
2023/06/01 00:48:45;;;;;;;7.85;3.35;;;;;;;22.39;42.31;102212.28;5017548;28;20037;-70
2023/06/01 00:51:12;;;;;;;5.93;3.42;;;;;;;22.39;42.38;102221.06;5019688;28;20079;-73
2023/06/01 00:53:37;;;;;;;5.43;3.28;;;;;;;22.41;42.64;102223.59;5005693;28;20044;-68
2023/06/01 00:56:03;;;;;;;5.55;3.42;;;;;;;22.37;42.11;102219.53;5005581;28;20038;-70
2023/06/01 00:58:29;;;;;;;8.50;3.17;;;;;;;22.38;42.22;102221.19;5013276;28;20076;-70
2023/06/01 01:00:55;;;;;;;10.07;3.70;;;;;;;22.34;42.29;102215.28;5015717;28;20510;-70
2023/06/01 01:03:21;;;;;;;5.35;3.17;;;;;;;22.38;42.50;102224.72;5011979;28;20033;-70
2023/06/01 01:05:47;;;;;;;5.85;3.28;;;;;;;22.35;42.08;102229.41;5002933;28;20037;-72
2023/06/01 01:08:33;;;;;;;5.63;3.22;;;;;;;22.33;42.39;102229.50;5016900;28;21371;-69
2023/06/01 01:11:07;;;;;;;5.00;2.85;;;;;;;22.35;42.34;102230.25;5005618;28;20081;-70
2023/06/01 01:14:01;;;;;;;6.90;3.33;;;;;;;22.33;42.17;102231.34;5010836;28;20065;-69
2023/06/01 01:16:30;;;;;;;5.82;3.25;;;;;;;22.33;41.97;102226.84;5016857;28;20058;-70
2023/06/01 01:19:18;;;;;;;6.88;3.95;;;;;;;22.34;42.00;102225.91;5017800;28;20164;-69
2023/06/01 01:21:55;;;;;;;5.93;3.55;;;;;;;22.32;42.45;102235.81;5004523;28;20042;-69
2023/06/01 01:24:42;;;;;;;7.40;3.50;;;;;;;22.31;42.27;102236.75;5016680;28;20385;-71
2023/06/01 01:27:24;;;;;;;5.82;3.03;;;;;;;22.31;42.02;102236.75;5007369;28;20037;-71
2023/06/01 01:29:52;;;;;;;7.07;3.70;;;;;;;22.32;41.93;102233.16;5004418;28;20361;-68
2023/06/01 01:32:19;;;;;;;6.43;3.28;;;;;;;22.32;41.91;102232.28;5007914;28;20056;-69
2023/06/01 01:34:45;;;;;;;8.30;3.67;;;;;;;22.28;41.88;102234.31;5022542;28;20057;-69
2023/06/01 01:37:11;;;;;;;6.20;3.33;;;;;;;22.28;41.76;102239.63;5023864;28;20134;-70
2023/06/01 01:39:36;;;;;;;6.03;3.33;;;;;;;22.27;41.78;102237.91;5024412;28;20052;-70
2023/06/01 01:42:01;;;;;;;6.93;3.58;;;;;;;22.28;41.97;102243.13;5021708;28;20044;-69
2023/06/01 01:44:27;;;;;;;5.80;3.88;;;;;;;22.26;42.11;102238.91;5014014;28;20040;-73
2023/06/01 01:47:04;;;;;;;7.03;3.80;;;;;;;22.24;41.90;102244.34;5013590;28;20026;-68
2023/06/01 01:49:42;;;;;;;5.32;3.35;;;;;;;22.23;41.95;102242.63;5014514;28;20040;-68
2023/06/01 01:52:13;;;;;;;7.32;3.50;;;;;;;22.23;41.91;102242.63;5016430;28;20034;-70
2023/06/01 01:54:42;;;;;;;9.20;4.22;;;;;;;22.24;41.68;102243.50;5013441;28;20132;-69
2023/06/01 01:57:08;;;;;;;6.40;3.80;;;;;;;22.23;42.04;102241.78;5016743;28;20034;-69
2023/06/01 01:59:35;;;;;;;5.63;3.50;;;;;;;22.21;41.81;102247.22;5014871;28;20045;-71
2023/06/01 02:02:00;;;;;;;5.78;3.25;;;;;;;22.21;41.66;102239.25;5017868;28;20400;-70
2023/06/01 02:04:26;;;;;;;5.72;3.45;;;;;;;22.23;41.93;102247.09;5011333;28;20440;-69
2023/06/01 02:06:51;;;;;;;5.95;3.63;;;;;;;22.22;41.80;102243.63;5011904;28;20436;-70
2023/06/01 02:09:17;;;;;;;7.60;3.97;;;;;;;22.21;41.89;102241.91;5011179;28;20067;-71
2023/06/01 02:11:43;;;;;;;7.15;3.85;;;;;;;22.20;41.68;102236.72;5018434;28;20396;-68
2023/06/01 02:14:09;;;;;;;8.48;3.80;;;;;;;22.21;41.62;102241.06;5013221;28;20029;-69
2023/06/01 02:16:34;;;;;;;7.57;4.20;;;;;;;22.17;41.63;102231.66;5016865;28;20045;-69
2023/06/01 02:18:59;;;;;;;6.43;3.63;;;;;;;22.21;41.66;102236.59;5007447;28;20129;-69
2023/06/01 02:21:25;;;;;;;6.20;3.90;;;;;;;22.22;41.53;102237.44;5015336;28;20736;-69
2023/06/01 02:23:50;;;;;;;5.53;3.78;;;;;;;22.15;41.62;102223.78;5014092;28;20466;-70
2023/06/01 02:26:16;;;;;;;7.50;3.85;;;;;;;22.18;41.68;102233.34;5013473;28;20082;-71
2023/06/01 02:28:42;;;;;;;6.70;4.35;;;;;;;22.18;41.45;102234.19;5008779;28;20045;-69
2023/06/01 02:31:08;;;;;;;5.97;3.83;;;;;;;22.18;41.88;102241.31;5014732;28;20037;-69
2023/06/01 02:33:33;;;;;;;6.82;3.92;;;;;;;22.17;41.65;102242.25;5016998;28;20041;-69
2023/06/01 02:35:59;;;;;;;6.85;3.80;;;;;;;22.16;41.29;102232.59;5017784;28;20501;-69
2023/06/01 02:38:25;;;;;;;5.78;3.67;;;;;;;22.15;41.73;102238.88;5022318;28;20037;-70
2023/06/01 02:40:51;;;;;;;6.05;3.40;;;;;;;22.16;41.30;102241.44;5004544;28;20026;-69
2023/06/01 02:43:16;;;;;;;6.65;3.80;;;;;;;22.15;41.34;102236.22;5011916;28;20037;-69
2023/06/01 02:45:41;;;;;;;7.45;3.92;;;;;;;22.14;41.25;102231.88;5010223;28;20040;-69
2023/06/01 02:48:07;;;;;;;5.83;3.70;;;;;;;22.15;41.29;102231.75;5021522;28;20474;-71
2023/06/01 02:50:32;;;;;;;7.07;3.78;;;;;;;22.15;41.24;102238.88;5015787;28;20281;-68
2023/06/01 02:52:57;;;;;;;6.15;3.70;;;;;;;22.09;41.23;102227.75;5008742;28;20022;-70
2023/06/01 02:55:22;;;;;;;5.68;3.65;;;;;;;22.12;41.02;102237.31;5015789;28;20029;-70
2023/06/01 02:57:48;;;;;;;6.47;4.00;;;;;;;22.12;41.13;102232.00;5013707;28;20022;-70
2023/06/01 03:00:17;;;;;;;7.35;3.97;;;;;;;22.10;41.23;102231.28;5018355;28;20428;-71
2023/06/01 03:02:43;;;;;;;6.43;3.60;;;;;;;22.12;41.10;102236.47;5005184;28;20054;-70
2023/06/01 03:05:09;;;;;;;6.13;3.88;;;;;;;22.13;41.45;102238.13;5005782;28;20036;-71
2023/06/01 03:07:34;;;;;;;6.05;3.63;;;;;;;22.12;40.88;102242.63;5014569;28;20393;-72
2023/06/01 03:09:59;;;;;;;6.65;3.70;;;;;;;22.08;41.31;102230.56;5017323;28;20080;-69
2023/06/01 03:12:25;;;;;;;5.82;3.30;;;;;;;22.09;41.21;102234.88;5009539;28;20462;-70
2023/06/01 03:14:50;;;;;;;6.38;3.75;;;;;;;22.10;41.09;102239.25;5014477;28;20508;-70
2023/06/01 03:17:15;;;;;;;6.63;3.50;;;;;;;22.10;41.21;102248.03;5004820;28;20046;-70
2023/06/01 03:19:41;;;;;;;6.50;3.80;;;;;;;22.10;41.14;102236.59;5018622;28;20068;-70
2023/06/01 03:22:06;;;;;;;6.65;3.88;;;;;;;22.08;41.16;102247.31;5019168;28;20030;-70
2023/06/01 03:24:32;;;;;;;5.13;3.45;;;;;;;22.07;40.94;102240.31;5017582;28;20044;-71
2023/06/01 03:26:57;;;;;;;6.60;3.65;;;;;;;22.06;40.82;102245.72;5011673;28;20030;-69
2023/06/01 03:29:23;;;;;;;5.68;3.47;;;;;;;22.07;40.65;102242.97;5012571;28;20084;-70
2023/06/01 03:31:48;;;;;;;6.78;3.40;;;;;;;22.04;41.05;102239.69;5011481;28;20083;-69
2023/06/01 03:34:14;;;;;;;6.82;3.47;;;;;;;22.04;41.28;102243.19;5014136;28;20065;-70
2023/06/01 03:36:39;;;;;;;6.07;3.25;;;;;;;22.05;41.04;102244.91;5007323;28;20052;-69
2023/06/01 03:39:08;;;;;;;5.50;3.60;;;;;;;21.99;41.07;102226.78;5024047;28;20033;-71
2023/06/01 03:41:36;;;;;;;6.30;3.63;;;;;;;22.05;41.05;102244.91;5010037;28;20270;-70
2023/06/01 03:44:02;;;;;;;6.05;3.17;;;;;;;22.01;40.87;102238.13;5006848;28;20113;-70
2023/06/01 03:46:27;;;;;;;5.47;3.40;;;;;;;22.04;41.00;102243.19;5021299;28;20036;-70
2023/06/01 03:48:52;;;;;;;5.63;3.30;;;;;;;22.03;40.97;102241.53;5012345;28;20038;-69
2023/06/01 03:51:18;;;;;;;5.50;3.27;;;;;;;22.03;40.97;102240.66;5013945;28;20631;-72
2023/06/01 03:53:43;;;;;;;5.82;3.33;;;;;;;22.00;40.87;102244.41;5010365;28;20378;-69
2023/06/01 03:56:08;;;;;;;7.63;3.53;;;;;;;22.03;41.23;102248.63;5008426;28;20025;-69
2023/06/01 03:58:34;;;;;;;5.28;3.03;;;;;;;22.01;40.94;102243.44;5012617;28;20045;-70
2023/06/01 04:01:00;;;;;;;5.60;3.35;;;;;;;22.02;40.66;102245.13;5015507;28;20048;-71
2023/06/01 04:03:26;;;;;;;5.22;3.13;;;;;;;22.02;40.78;102255.75;5017536;28;20037;-69
2023/06/01 04:05:58;;;;;;;5.68;3.22;;;;;;;22.01;40.60;102242.59;5010916;28;20033;-69
2023/06/01 04:08:23;;;;;;;6.47;3.13;;;;;;;22.02;40.77;102249.59;5017379;28;20037;-70
2023/06/01 04:10:49;;;;;;;5.85;3.20;;;;;;;22.01;41.00;102253.22;5013250;28;20037;-69
2023/06/01 04:13:14;;;;;;;5.85;3.42;;;;;;;21.99;40.55;102250.66;5016729;28;21006;-69
2023/06/01 04:15:40;;;;;;;5.15;3.25;;;;;;;21.99;40.96;102250.66;5015199;28;20038;-70
2023/06/01 04:18:06;;;;;;;8.45;3.20;;;;;;;21.99;40.93;102240.06;5004895;28;20113;-69
2023/06/01 04:20:32;;;;;;;5.78;3.30;;;;;;;21.96;40.69;102240.28;5008256;28;20029;-69
2023/06/01 04:22:57;;;;;;;5.53;3.03;;;;;;;21.96;40.80;102248.25;5011997;28;20079;-69
2023/06/01 04:25:23;;;;;;;5.63;3.10;;;;;;;21.96;40.95;102250.91;5018265;28;20812;-69
2023/06/01 04:27:51;;;;;;;5.22;3.17;;;;;;;21.95;40.81;102246.53;5011025;28;20039;-69
2023/06/01 04:30:17;;;;;;;5.45;3.00;;;;;;;21.96;40.61;102239.44;5014884;28;20425;-72
2023/06/01 04:32:44;;;;;;;5.45;2.90;;;;;;;21.98;40.81;102254.28;5006114;28;20037;-69
2023/06/01 04:35:09;;;;;;;5.63;2.95;;;;;;;21.98;40.84;102250.78;5011147;28;20033;-70
2023/06/01 04:37:40;;;;;;;6.03;3.20;;;;;;;21.96;40.94;102250.06;5009647;28;20049;-69
2023/06/01 04:40:08;;;;;;;5.72;3.22;;;;;;;21.96;40.76;102258.88;5019732;28;20033;-69
2023/06/01 04:42:38;;;;;;;5.93;3.35;;;;;;;21.95;40.55;102264.28;5007793;28;20486;-69
2023/06/01 04:45:07;;;;;;;5.20;2.88;;;;;;;21.95;40.68;102267.78;5017466;28;20041;-71
2023/06/01 04:47:36;;;;;;;6.35;3.22;;;;;;;21.94;40.71;102263.44;5011057;28;20061;-69
2023/06/01 04:50:01;;;;;;;6.05;2.88;;;;;;;21.93;40.48;102265.22;5012375;28;20109;-70
2023/06/01 04:52:27;;;;;;;5.22;2.78;;;;;;;21.92;40.57;102260.03;5021318;28;20446;-70
2023/06/01 04:54:53;;;;;;;6.28;3.15;;;;;;;21.86;40.36;102244.59;5017428;28;20026;-70
2023/06/01 04:57:18;;;;;;;5.85;3.00;;;;;;;21.93;40.20;102259.94;5011655;28;20129;-69
2023/06/01 04:59:44;;;;;;;6.25;3.08;;;;;;;21.93;40.42;102264.41;5007512;28;20033;-69
2023/06/01 05:02:10;;;;;;;5.93;3.25;;;;;;;21.91;40.31;102255.72;5016585;28;20057;-72
2023/06/01 05:04:35;;;;;;;5.38;2.95;;;;;;;21.89;40.22;102255.84;5018799;28;20041;-70
2023/06/01 05:07:01;;;;;;;6.00;3.00;;;;;;;21.89;40.02;102252.34;5005758;28;20025;-69
2023/06/01 05:09:26;;;;;;;6.57;3.20;;;;;;;21.89;40.60;102255.84;5008639;28;20489;-70
2023/06/01 05:11:52;;;;;;;6.85;3.13;;;;;;;21.91;40.29;102253.91;5008958;28;20436;-69
2023/06/01 05:14:17;;;;;;;5.22;3.22;;;;;;;21.90;40.47;102251.34;5006934;28;20474;-68
2023/06/01 05:16:43;;;;;;;5.72;3.38;;;;;;;21.90;40.31;102257.53;5002729;28;20045;-68
2023/06/01 05:19:08;;;;;;;5.45;3.30;;;;;;;21.91;40.43;102263.69;5011826;28;20029;-69
2023/06/01 05:21:33;;;;;;;6.40;3.42;;;;;;;21.90;40.20;102261.97;5010676;28;20037;-69
2023/06/01 05:23:58;;;;;;;5.20;3.13;;;;;;;21.89;40.14;102257.66;5011988;28;20076;-70
2023/06/01 05:26:24;;;;;;;7.43;3.65;;;;;;;21.88;40.30;102250.63;5016882;28;20333;-69
2023/06/01 05:28:49;;;;;;;6.13;3.27;;;;;;;21.91;40.17;102259.22;5019833;28;20038;-69
2023/06/01 05:31:14;;;;;;;6.60;3.50;;;;;;;21.87;40.09;102249.81;5023229;28;20258;-70
2023/06/01 05:33:40;;;;;;;5.85;3.42;;;;;;;21.88;40.25;102256.78;5017625;28;20427;-69
2023/06/01 05:36:06;;;;;;;5.20;3.00;;;;;;;21.89;40.25;102255.84;5009994;28;20045;-69
2023/06/01 05:38:31;;;;;;;5.35;3.20;;;;;;;21.88;40.22;102255.94;5007208;28;20036;-69
2023/06/01 05:40:56;;;;;;;5.57;3.55;;;;;;;21.87;39.94;102251.59;5015336;28;20022;-69
2023/06/01 05:43:21;;;;;;;5.63;3.40;;;;;;;21.87;40.21;102247.16;5011187;28;20065;-69
2023/06/01 05:45:48;;;;;;;6.17;3.30;;;;;;;21.87;40.12;102251.59;5021794;28;20705;-69
2023/06/01 05:48:14;;;;;;;5.32;3.17;;;;;;;21.86;40.36;102239.31;5009554;28;20271;-69
2023/06/01 05:50:40;;;;;;;6.13;3.33;;;;;;;21.86;39.90;102250.75;5010792;28;20042;-71
2023/06/01 05:53:06;;;;;;;7.00;3.38;;;;;;;21.85;39.92;102249.06;5013680;28;20073;-67
2023/06/01 05:55:32;;;;;;;5.30;3.30;;;;;;;21.83;40.26;102242.19;5012533;28;20486;-70
2023/06/01 05:57:57;;;;;;;5.73;3.27;;;;;;;21.84;40.38;102258.00;5013688;28;20029;-69
2023/06/01 06:00:23;;;;;;;7.37;3.20;;;;;;;21.83;40.64;102252.81;5012104;28;20663;-69
2023/06/01 06:02:48;;;;;;;5.10;3.10;;;;;;;21.81;40.96;102252.91;5013320;28;20277;-68
2023/06/01 06:05:14;;;;;;;5.75;3.50;;;;;;;21.82;40.84;102256.41;5021424;28;20021;-67
2023/06/01 06:07:39;;;;;;;5.70;3.40;;;;;;;21.79;40.85;102246.84;5013892;28;20036;-69
2023/06/01 06:10:05;;;;;;;6.00;3.55;;;;;;;21.78;40.60;102249.63;5015627;28;20037;-69
2023/06/01 06:12:31;;;;;;;6.38;3.53;;;;;;;21.78;41.05;102242.53;5016930;28;20470;-70
2023/06/01 06:14:56;;;;;;;5.90;3.40;;;;;;;21.81;40.78;102254.69;5012053;28;20129;-69
2023/06/01 06:17:21;;;;;;;7.13;3.43;;;;;;;21.80;40.90;102251.22;5008476;28;20081;-68
2023/06/01 06:19:48;;;;;;;8.00;3.67;;;;;;;21.81;41.14;102257.34;5014838;28;20303;-68
2023/06/01 06:22:14;;;;;;;5.70;3.20;;;;;;;21.83;40.98;102261.59;5011956;28;20041;-70
2023/06/01 06:24:39;;;;;;;6.82;3.13;;;;;;;21.82;41.21;102265.19;5014001;28;20033;-68
2023/06/01 06:27:05;;;;;;;5.90;3.42;;;;;;;21.80;40.93;102259.16;5005890;28;20088;-69
2023/06/01 06:29:31;;;;;;;7.03;3.72;;;;;;;21.85;40.96;102261.47;5010421;28;20497;-68
2023/06/01 06:31:56;;;;;;;6.60;3.58;;;;;;;21.83;40.94;102258.09;5011902;28;20033;-68
2023/06/01 06:34:21;;;;;;;7.23;3.30;;;;;;;21.85;41.16;102262.31;5005966;28;20033;-71
2023/06/01 06:36:47;;;;;;;7.27;3.73;;;;;;;21.86;41.22;102271.16;5015250;28;20272;-70
2023/06/01 06:39:12;;;;;;;5.53;3.15;;;;;;;21.86;41.26;102252.56;5018855;28;20813;-69
2023/06/01 06:41:40;;;;;;;7.35;3.50;;;;;;;21.85;41.15;102259.66;5011624;28;20133;-69
2023/06/01 06:44:05;;;;;;;6.60;3.40;;;;;;;21.84;41.52;102257.13;5018857;28;20121;-69
2023/06/01 06:46:31;;;;;;;6.68;3.25;;;;;;;21.87;41.13;102260.41;5006233;28;20565;-70
2023/06/01 06:48:56;;;;;;;7.72;3.88;;;;;;;21.88;41.31;102258.59;5016396;28;20034;-69
2023/06/01 06:51:22;;;;;;;6.38;3.13;;;;;;;21.85;41.13;102249.06;5014043;28;20040;-70
2023/06/01 06:53:47;;;;;;;9.55;4.57;;;;;;;21.87;40.83;102252.47;5008230;28;20033;-71
2023/06/01 06:56:12;;;;;;;5.80;3.08;;;;;;;21.90;41.06;102269.94;5017459;28;20543;-69
2023/06/01 06:58:37;;;;;;;7.20;3.50;;;;;;;21.91;41.06;102271.63;5008615;28;20033;-68
2023/06/01 07:01:05;;;;;;;6.03;3.20;;;;;;;21.92;41.05;102286.59;5006669;28;20305;-71
2023/06/01 07:03:31;;;;;;;8.02;3.47;;;;;;;21.91;41.15;102274.28;5010798;28;20302;-69
2023/06/01 07:05:57;;;;;;;6.68;3.47;;;;;;;21.90;41.34;102277.91;5015123;28;20080;-69
2023/06/01 07:08:22;;;;;;;5.15;3.25;;;;;;;21.90;41.52;102267.28;5015889;28;20034;-71
2023/06/01 07:10:47;;;;;;;7.30;3.72;;;;;;;21.91;41.31;102269.00;5017623;28;20069;-69
2023/06/01 07:13:13;;;;;;;8.43;3.60;;;;;;;21.92;41.44;102273.31;5029707;28;20034;-71
2023/06/01 07:15:38;;;;;;;7.07;3.28;;;;;;;21.90;41.25;102273.47;5012237;28;20322;-70
2023/06/01 07:18:03;;;;;;;6.35;3.45;;;;;;;21.89;41.25;102266.44;5011178;28;20046;-68
2023/06/01 07:20:29;;;;;;;6.43;3.53;;;;;;;21.91;41.37;102266.34;5016565;28;20045;-68
2023/06/01 07:22:54;;;;;;;8.63;3.50;;;;;;;21.91;41.36;102258.38;5027600;28;20307;-70
2023/06/01 07:25:19;;;;;;;8.32;4.07;;;;;;;21.93;41.68;102259.09;5014150;28;20025;-71
2023/06/01 07:27:45;;;;;;;6.60;3.35;;;;;;;21.96;41.81;102261.50;5008826;28;20045;-69
2023/06/01 07:30:12;;;;;;;5.72;3.30;;;;;;;21.98;41.47;102259.59;5011769;28;20026;-68
2023/06/01 07:32:37;;;;;;;7.00;3.90;;;;;;;21.97;41.41;102268.53;5011233;28;20389;-69
2023/06/01 07:35:04;;;;;;;8.43;3.67;;;;;;;21.99;41.38;102266.59;5012805;28;20038;-70
2023/06/01 07:37:31;;;;;;;7.88;3.55;;;;;;;21.95;41.51;102259.81;5012182;28;20572;-70
2023/06/01 07:39:57;;;;;;;6.13;3.53;;;;;;;22.00;41.80;102267.44;5006569;28;20603;-69
2023/06/01 07:42:22;;;;;;;7.78;3.67;;;;;;;21.96;41.69;102258.03;5004290;28;20542;-69
2023/06/01 07:44:47;;;;;;;6.77;3.60;;;;;;;22.01;41.91;102264.66;5012212;28;20529;-69
2023/06/01 07:47:13;;;;;;;6.35;4.32;;;;;;;22.01;41.79;102259.34;5010746;28;20282;-70
2023/06/01 07:49:38;;;;;;;6.88;3.70;;;;;;;22.04;41.96;102258.28;5012472;28;20037;-69
2023/06/01 07:52:05;;;;;;;7.63;3.95;;;;;;;22.03;41.79;102267.19;5013933;28;20060;-70
2023/06/01 07:54:31;;;;;;;10.05;3.92;;;;;;;21.98;42.28;102259.59;5015855;28;20025;-69
2023/06/01 07:56:56;;;;;;;9.40;4.00;;;;;;;22.03;41.81;102267.19;5005852;28;20091;-70
2023/06/01 07:59:22;;;;;;;8.27;3.70;;;;;;;22.02;42.17;102265.53;5009835;28;20388;-69
2023/06/01 08:01:51;;;;;;;6.90;3.70;;;;;;;22.00;42.06;102262.13;5012953;28;20033;-68
2023/06/01 08:04:20;;;;;;;8.70;4.78;;;;;;;21.95;43.55;102266.94;5010264;28;20040;-68
2023/06/01 08:06:46;;;;;;;10.80;5.28;;;;;;;21.95;44.93;102269.59;5010567;28;20470;-70
2023/06/01 08:09:11;;;;;;;8.23;5.13;;;;;;;21.91;45.45;102259.22;5010046;28;20025;-68
2023/06/01 08:11:36;;;;;;;10.25;4.88;;;;;;;21.91;45.49;102258.38;5005500;28;20030;-67
2023/06/01 08:14:04;;;;;;;12.27;5.23;;;;;;;21.96;45.72;102260.69;5007505;28;20048;-71
2023/06/01 08:16:29;;;;;;;13.27;5.03;;;;;;;21.96;45.74;102258.88;5010781;28;20271;-68
2023/06/01 08:18:56;;;;;;;9.07;5.10;;;;;;;21.99;45.44;102252.50;5008978;28;20060;-66
2023/06/01 08:21:25;;;;;;;12.63;5.55;;;;;;;22.02;45.26;102255.75;5011341;28;20033;-68
2023/06/01 08:23:51;;;;;;;10.00;4.60;;;;;;;21.99;45.57;102249.84;5009494;28;20072;-68
2023/06/01 08:26:19;;;;;;;10.50;4.97;;;;;;;21.98;45.50;102251.63;5013663;28;20040;-67
2023/06/01 08:28:51;;;;;;;8.60;4.20;;;;;;;22.00;45.84;102259.47;5009395;28;20064;-66
2023/06/01 08:31:17;;;;;;;9.23;4.15;;;;;;;22.01;45.20;102253.22;5014672;28;20041;-67
2023/06/01 08:33:42;;;;;;;10.32;4.43;;;;;;;22.02;44.99;102250.44;5016660;28;20157;-67
2023/06/01 08:36:08;;;;;;;8.47;4.63;;;;;;;22.03;45.51;102254.78;5011089;28;20117;-68
2023/06/01 08:38:33;;;;;;;9.57;4.78;;;;;;;22.02;45.47;102247.78;5010701;28;20286;-68
2023/06/01 08:41:03;;;;;;;9.35;4.63;;;;;;;21.99;45.45;102257.78;5017906;28;20064;-69
2023/06/01 08:43:32;;;;;;;10.25;4.78;;;;;;;22.00;45.68;102249.72;5008302;28;20445;-69
2023/06/01 08:45:58;;;;;;;9.68;5.05;;;;;;;21.99;45.60;102248.00;5009630;28;20029;-68
2023/06/01 08:48:24;;;;;;;8.40;4.32;;;;;;;22.00;45.87;102246.19;5009239;28;20034;-69
2023/06/01 08:50:50;;;;;;;12.35;4.00;;;;;;;21.98;45.94;102243.66;5004186;28;20351;-68
2023/06/01 08:53:21;;;;;;;9.75;4.40;;;;;;;22.00;45.95;102248.84;5008128;28;20052;-69
2023/06/01 08:55:54;;;;;;;9.73;3.95;;;;;;;21.98;45.90;102242.81;5009264;28;20029;-68
2023/06/01 08:58:19;;;;;;;11.98;4.70;;;;;;;22.02;46.01;102245.13;5008147;28;20116;-67
2023/06/01 09:00:48;;;;;;;10.55;4.05;;;;;;;22.03;45.74;102238.00;5010227;28;20043;-67
2023/06/01 09:03:13;;;;;;;14.07;4.15;;;;;;;22.04;45.97;102242.34;5017584;28;20034;-68
2023/06/01 09:05:39;;;;;;;10.25;4.28;;;;;;;22.06;46.16;102245.72;5016592;28;20397;-67
2023/06/01 09:08:04;;;;;;;7.30;3.80;;;;;;;22.04;45.99;102240.53;5011999;28;20036;-68
2023/06/01 09:10:30;;;;;;;10.25;5.38;;;;;;;22.04;46.05;102245.84;5012568;28;20037;-69
2023/06/01 09:12:55;;;;;;;8.80;4.15;;;;;;;22.08;45.45;102239.34;5028752;28;20136;-71
2023/06/01 09:15:21;;;;;;;12.13;4.97;;;;;;;22.07;45.29;102227.03;5014291;28;20068;-68
2023/06/01 09:17:50;;;;;;;10.57;4.60;;;;;;;22.08;45.30;102228.75;5011801;28;21271;-66
2023/06/01 09:20:23;;;;;;;9.52;4.60;;;;;;;22.08;45.42;102226.09;5014192;28;20493;-67
2023/06/01 09:22:48;;;;;;;10.18;4.50;;;;;;;22.09;45.57;102225.09;5006738;28;20112;-68
2023/06/01 09:25:14;;;;;;;7.25;4.07;;;;;;;22.09;44.96;102222.44;5007760;28;20113;-69
2023/06/01 09:27:49;;;;;;;8.65;4.07;;;;;;;22.09;45.25;102224.25;5018960;28;20033;-70
2023/06/01 09:30:16;;;;;;;8.18;4.32;;;;;;;22.09;44.72;102219.78;5016964;28;20458;-70
2023/06/01 09:32:42;;;;;;;9.70;4.32;;;;;;;22.11;44.93;102222.31;5012342;28;20029;-70
2023/06/01 09:35:08;;;;;;;9.07;4.78;;;;;;;22.09;44.50;102211.00;5010475;28;20401;-70
2023/06/01 09:37:34;;;;;;;12.13;4.97;;;;;;;22.14;44.72;102211.47;5005731;28;20107;-68
2023/06/01 09:40:00;;;;;;;9.63;4.35;;;;;;;22.13;44.87;102206.28;5008682;28;20091;-69
2023/06/01 09:42:33;;;;;;;9.18;4.40;;;;;;;22.15;44.61;102209.69;5015186;28;20438;-71
2023/06/01 09:45:21;;;;;;;9.50;4.35;;;;;;;22.16;44.21;102203.38;5013029;28;20088;-66
2023/06/01 09:47:51;;;;;;;7.30;4.28;;;;;;;22.18;43.98;102204.13;5018909;28;20037;-69
2023/06/01 09:50:38;;;;;;;9.45;4.93;;;;;;;22.15;44.41;102201.72;5018347;28;20462;-67
2023/06/01 09:53:06;;;;;;;9.43;4.10;;;;;;;22.18;44.04;102199.66;5010697;28;20393;-71
2023/06/01 09:55:32;;;;;;;8.75;4.63;;;;;;;22.20;43.87;102208.34;5011395;28;20937;-67
2023/06/01 09:58:20;;;;;;;11.07;4.43;;;;;;;22.23;43.95;102201.97;5014000;28;20038;-69
2023/06/01 10:00:50;;;;;;;7.93;4.40;;;;;;;22.24;43.83;102199.19;5016246;28;20026;-72
2023/06/01 10:03:16;;;;;;;8.45;4.18;;;;;;;22.25;43.78;102198.22;5015098;28;20068;-69
2023/06/01 10:05:46;;;;;;;8.48;4.30;;;;;;;22.21;44.12;102204.75;5014693;28;20049;-68
2023/06/01 10:08:14;;;;;;;10.27;4.55;;;;;;;22.21;44.33;102196.78;5013348;28;20040;-67
2023/06/01 10:10:43;;;;;;;6.55;4.30;;;;;;;22.18;44.57;102202.31;5009147;28;20029;-67
2023/06/01 10:13:09;;;;;;;7.72;4.10;;;;;;;22.16;44.82;102206.03;5017818;28;20033;-67
2023/06/01 10:15:35;;;;;;;7.68;4.22;;;;;;;22.16;44.41;102195.44;5020518;28;20470;-67
2023/06/01 10:18:02;;;;;;;10.05;4.32;;;;;;;22.21;44.23;102201.25;5008502;28;20054;-69
2023/06/01 10:20:31;;;;;;;7.10;3.85;;;;;;;22.22;44.41;102193.16;5021475;28;20033;-71
2023/06/01 10:22:56;;;;;;;10.15;4.75;;;;;;;22.24;44.15;102185.09;5019662;28;20401;-67
2023/06/01 10:25:23;;;;;;;7.50;4.18;;;;;;;22.28;44.25;102189.16;5019575;28;20033;-68
2023/06/01 10:28:03;;;;;;;8.40;4.13;;;;;;;22.27;44.28;102193.66;5013205;28;20040;-69
2023/06/01 10:30:28;;;;;;;8.15;4.45;;;;;;;22.28;44.35;102183.84;5017875;28;20045;-66
2023/06/01 10:32:54;;;;;;;8.68;4.38;;;;;;;22.34;43.90;102179.91;5020016;28;20025;-73
2023/06/01 10:35:25;;;;;;;8.02;4.55;;;;;;;22.36;43.95;102180.63;5010100;28;20079;-72
2023/06/01 10:38:05;;;;;;;7.72;4.55;;;;;;;22.32;44.56;102189.81;5018107;28;20029;-72
2023/06/01 10:40:33;;;;;;;7.80;4.30;;;;;;;22.30;44.58;102171.31;5009370;28;20025;-69
2023/06/01 10:42:58;;;;;;;8.73;4.50;;;;;;;22.28;44.32;102181.19;5034467;28;20132;-71
2023/06/01 10:45:40;;;;;;;6.82;4.32;;;;;;;22.24;45.07;102182.44;5010121;28;20116;-70
2023/06/01 10:48:10;;;;;;;7.88;3.78;;;;;;;22.24;44.36;102175.28;5018756;28;20825;-70
2023/06/01 10:50:36;;;;;;;7.20;4.22;;;;;;;22.24;44.53;102182.44;5007879;28;20032;-69
2023/06/01 10:53:23;;;;;;;7.28;3.83;;;;;;;22.20;45.21;102187.09;5014018;28;20117;-70
2023/06/01 10:56:18;;;;;;;7.93;4.47;;;;;;;22.20;45.00;102179.13;5005147;28;20034;-68
2023/06/01 10:58:43;;;;;;;7.63;4.22;;;;;;;22.23;45.14;102172.75;5013190;28;20387;-68
2023/06/01 11:01:10;;;;;;;7.45;4.00;;;;;;;22.23;44.95;102170.94;5017804;28;20509;-69
2023/06/01 11:03:44;;;;;;;9.43;4.63;;;;;;;22.22;45.01;102179.03;5013444;28;20037;-68
2023/06/01 11:06:31;;;;;;;12.15;4.38;;;;;;;22.29;44.25;102169.63;5007376;28;20044;-67
2023/06/01 11:08:59;;;;;;;10.45;4.50;;;;;;;22.33;44.04;102167.59;5017042;28;20073;-69
2023/06/01 11:11:57;;;;;;;7.93;3.90;;;;;;;22.33;44.61;102163.13;5011708;28;20072;-68
2023/06/01 11:14:24;;;;;;;12.98;4.30;;;;;;;22.33;44.16;102157.81;5012127;28;20386;-68
2023/06/01 11:16:51;;;;;;;7.72;4.32;;;;;;;22.36;44.45;102162.03;5014234;28;20036;-68
2023/06/01 11:19:20;;;;;;;8.27;4.28;;;;;;;22.37;44.43;102164.59;5020395;28;20051;-66
2023/06/01 11:21:46;;;;;;;8.32;4.30;;;;;;;22.37;44.63;102159.28;5004138;28;20068;-68
2023/06/01 11:24:13;;;;;;;10.10;4.50;;;;;;;22.39;44.22;102157.31;5003636;28;20451;-68